createdAt,value
2019-04-23T00:05:07.961Z,15.40
2019-04-23T00:10:25.264Z,15.30
2019-04-23T00:15:17.081Z,15.30
2019-04-23T00:20:33.915Z,15.30
2019-04-23T00:26:02.727Z,15.20
2019-04-23T00:31:13.446Z,15.20
2019-04-23T00:36:24.210Z,15.10
2019-04-23T00:41:33.479Z,14.90
2019-04-23T00:46:36.807Z,14.90
2019-04-23T00:51:42.530Z,14.80
2019-04-23T00:57:00.747Z,14.70
2019-04-23T01:02:00.723Z,14.70
2019-04-23T01:07:36.536Z,14.70
2019-04-23T01:17:55.997Z,14.70
2019-04-23T01:22:38.021Z,14.70
2019-04-23T01:28:17.471Z,14.60
2019-04-23T01:33:27.161Z,14.50
2019-04-23T01:38:35.573Z,14.40
2019-04-23T01:43:42.848Z,14.20
2019-04-23T01:59:07.367Z,14.00
2019-04-23T02:04:18.658Z,14.10
2019-04-23T02:09:27.318Z,14.00
2019-04-23T02:24:55.839Z,13.70
2019-04-23T02:30:15.802Z,13.40
2019-04-23T02:35:26.030Z,13.10
2019-04-23T02:40:30.357Z,13.00
2019-04-23T02:50:40.212Z,12.90
2019-04-23T03:11:20.357Z,12.20
2019-04-23T03:21:59.739Z,12.00
2019-04-23T03:47:58.969Z,12.00
2019-04-23T03:52:51.130Z,12.10
2019-04-23T04:03:24.133Z,12.30
2019-04-23T04:13:30.605Z,11.90
2019-04-23T04:18:57.318Z,12.20
2019-04-23T04:24:01.623Z,12.00
2019-04-23T04:45:37.004Z,11.80
2019-04-23T04:50:04.716Z,11.90
2019-04-23T05:00:42.982Z,11.90
2019-04-23T05:11:07.628Z,11.80
2019-04-23T05:16:01.833Z,11.90
2019-04-23T05:21:08.128Z,12.00
2019-04-23T05:26:17.811Z,12.00
2019-04-23T05:31:18.672Z,12.20
2019-04-23T05:36:32.278Z,12.30
2019-04-23T05:46:49.066Z,12.50
2019-04-23T05:52:00.324Z,12.60
2019-04-23T05:57:02.873Z,12.50
2019-04-23T06:02:20.427Z,12.50
2019-04-23T06:12:50.900Z,12.70
2019-04-23T06:17:47.550Z,13.00
2019-04-23T06:22:56.122Z,13.20
2019-04-23T06:28:11.149Z,13.50
2019-04-23T06:33:19.765Z,13.60
2019-04-23T06:43:38.790Z,13.90
2019-04-23T06:48:40.876Z,14.20
2019-04-23T06:53:43.708Z,14.60
2019-04-23T06:58:48.961Z,14.90
2019-04-23T07:04:05.245Z,15.00
2019-04-23T07:14:14.777Z,15.50
2019-04-23T07:19:31.942Z,15.60
2019-04-23T07:24:40.568Z,15.80
2019-04-23T07:35:04.213Z,16.10
2019-04-23T07:40:27.182Z,16.60
2019-04-23T07:45:30.993Z,17.00
2019-04-23T07:55:53.196Z,17.50
2019-04-23T08:01:08.386Z,17.70
2019-04-23T08:06:00.646Z,17.90
2019-04-23T08:21:33.374Z,18.30
2019-04-23T08:26:55.194Z,18.70
2019-04-23T08:32:09.021Z,19.00
2019-04-23T08:47:37.820Z,19.70
2019-04-23T08:52:47.192Z,20.20
2019-04-23T08:57:47.132Z,19.00
2019-04-23T09:03:04.894Z,18.30
2019-04-23T09:08:14.509Z,18.50
2019-04-23T09:13:43.809Z,18.40
2019-04-23T09:18:26.305Z,19.20
2019-04-23T09:23:45.132Z,19.60
2019-04-23T09:34:07.534Z,20.10
2019-04-23T09:39:32.962Z,20.00
2019-04-23T09:44:58.208Z,20.30
2019-04-23T09:50:01.257Z,20.30
2019-04-23T09:55:16.062Z,20.80
2019-04-23T10:00:25.722Z,21.60
2019-04-23T10:05:11.277Z,21.80
2019-04-23T10:10:05.395Z,22.40
2019-04-23T10:15:21.061Z,22.40
2019-04-23T10:20:20.459Z,22.50
2019-04-23T10:25:30.184Z,22.80
2019-04-23T10:30:36.702Z,22.80
2019-04-23T10:35:52.564Z,22.60
2019-04-23T10:40:52.123Z,22.30
2019-04-23T10:46:43.135Z,22.40
2019-04-23T10:57:03.960Z,22.50
2019-04-23T11:13:10.655Z,22.60
2019-04-23T11:23:37.681Z,22.90
2019-04-23T11:28:51.910Z,23.60
2019-04-23T11:39:17.066Z,23.40
2019-04-23T11:44:23.611Z,23.80
2019-04-23T11:49:34.520Z,23.90
2019-04-23T11:54:30.725Z,24.90
2019-04-23T12:05:09.360Z,25.30
2019-04-23T12:10:26.983Z,25.20
2019-04-23T12:25:47.487Z,24.40
2019-04-23T12:30:50.266Z,24.20
2019-04-23T12:36:29.241Z,24.60
2019-04-23T12:41:31.947Z,24.40
2019-04-23T12:46:39.915Z,25.20
2019-04-23T12:51:47.254Z,25.50
2019-04-23T12:57:14.754Z,25.60
2019-04-23T13:02:08.151Z,25.50
2019-04-23T13:07:17.551Z,25.40
2019-04-23T13:12:29.303Z,25.00
2019-04-23T13:17:42.283Z,25.20
2019-04-23T13:22:49.464Z,24.50
2019-04-23T13:33:17.566Z,24.30
2019-04-23T13:38:23.614Z,24.20
2019-04-23T13:48:34.445Z,25.80
2019-04-23T13:58:48.838Z,26.10
2019-04-23T14:04:04.077Z,26.70
2019-04-23T14:14:22.210Z,28.00
2019-04-23T14:19:17.544Z,28.20
2019-04-23T14:24:38.194Z,27.60
2019-04-23T14:29:56.214Z,27.40
2019-04-23T14:35:10.957Z,26.30
2019-04-23T14:46:04.848Z,28.00
2019-04-23T14:51:02.399Z,28.20
2019-04-23T14:56:13.236Z,27.40
2019-04-23T15:01:27.197Z,27.70
2019-04-23T15:11:35.315Z,28.50
2019-04-23T15:22:04.706Z,29.90
2019-04-23T15:32:07.734Z,29.40
2019-04-23T15:42:25.357Z,29.50
2019-04-23T15:47:32.987Z,30.70
2019-04-23T15:52:48.409Z,30.10
2019-04-23T16:02:27.253Z,32.40
2019-04-23T16:07:53.321Z,30.70
2019-04-23T16:13:14.921Z,31.50
2019-04-23T16:23:41.161Z,31.30
2019-04-23T16:29:23.386Z,31.60
2019-04-23T16:39:16.928Z,27.60
2019-04-23T16:44:39.358Z,26.50
2019-04-23T16:49:57.569Z,27.70
2019-04-23T16:54:58.541Z,28.20
2019-04-23T17:05:14.314Z,29.30
2019-04-23T17:10:23.972Z,27.70
2019-04-23T17:15:28.112Z,26.80
2019-04-23T17:20:50.591Z,24.50
2019-04-23T17:26:02.648Z,23.10
2019-04-23T17:31:26.320Z,22.50
2019-04-23T17:36:37.857Z,22.20
2019-04-23T17:42:12.523Z,21.80
2019-04-23T17:47:47.910Z,21.50
2019-04-23T17:53:11.094Z,21.30
2019-04-23T17:58:01.421Z,21.00
2019-04-23T18:03:08.902Z,20.80
2019-04-23T18:08:11.156Z,20.60
2019-04-23T18:13:27.717Z,20.40
2019-04-23T18:18:39.289Z,20.20
2019-04-23T18:24:30.478Z,19.90
2019-04-23T18:29:38.497Z,19.70
2019-04-23T18:34:48.922Z,19.40
2019-04-23T18:39:58.941Z,19.10
2019-04-23T18:45:39.104Z,18.80
2019-04-23T18:51:00.345Z,18.50
2019-04-23T19:01:25.799Z,18.30
2019-04-23T19:06:32.589Z,18.10
2019-04-23T19:12:19.401Z,18.00
2019-04-23T19:27:37.001Z,17.10
2019-04-23T19:32:43.222Z,16.90
2019-04-23T19:38:08.391Z,16.70
2019-04-23T19:42:56.738Z,16.50
2019-04-23T19:58:23.940Z,16.60
2019-04-23T20:03:37.071Z,17.60
2019-04-23T20:13:50.800Z,18.10
2019-04-23T20:18:54.565Z,17.80
2019-04-23T20:24:11.178Z,18.20
2019-04-23T20:35:05.078Z,18.60
2019-04-23T20:40:11.412Z,18.20
2019-04-23T20:50:16.430Z,17.20
2019-04-23T20:55:47.052Z,16.80
2019-04-23T21:00:57.166Z,16.60
2019-04-23T21:05:50.505Z,16.60
2019-04-23T21:10:55.657Z,16.70
2019-04-23T21:16:12.891Z,17.00
2019-04-23T21:26:37.074Z,16.90
2019-04-23T21:31:40.560Z,17.00
2019-04-23T21:36:52.195Z,16.80
2019-04-23T21:47:15.408Z,16.10
2019-04-23T21:52:26.614Z,15.80
2019-04-23T21:57:44.058Z,15.50
2019-04-23T22:18:12.815Z,14.50
2019-04-23T22:23:33.314Z,14.40
2019-04-23T22:28:42.801Z,14.30
2019-04-23T22:33:46.595Z,14.20
2019-04-23T22:38:51.110Z,13.90
2019-04-23T22:44:07.116Z,13.70
2019-04-23T22:54:31.720Z,13.70
2019-04-23T23:00:00.949Z,13.60
2019-04-23T23:05:02.396Z,13.50
2019-04-23T23:10:02.365Z,13.20
2019-04-23T23:15:10.251Z,13.10
2019-04-23T23:25:24.657Z,13.10
2019-04-23T23:30:42.542Z,13.30
2019-04-23T23:35:38.992Z,13.30
2019-04-23T23:46:10.487Z,13.50
2019-04-23T23:51:09.957Z,13.50
2019-04-23T23:56:19.446Z,13.60
